sensor_id;sensor_type;location;lat;lon;timestamp;temperature;humidity
2042;DHT22;1026;51.460;7.252;2022-07-23T00:00:48;21.50;71.50
2042;DHT22;1026;51.460;7.252;2022-07-23T00:03:13;21.50;70.80
2042;DHT22;1026;51.460;7.252;2022-07-23T00:05:39;21.50;71.00
2042;DHT22;1026;51.460;7.252;2022-07-23T00:08:06;21.50;71.00
2042;DHT22;1026;51.460;7.252;2022-07-23T00:10:32;21.50;71.10
2042;DHT22;1026;51.460;7.252;2022-07-23T00:12:58;21.50;71.10
2042;DHT22;1026;51.460;7.252;2022-07-23T00:15:24;21.40;71.10
2042;DHT22;1026;51.460;7.252;2022-07-23T00:17:50;21.40;71.20
2042;DHT22;1026;51.460;7.252;2022-07-23T00:20:16;21.40;71.20
2042;DHT22;1026;51.460;7.252;2022-07-23T00:22:56;21.40;71.30
2042;DHT22;1026;51.460;7.252;2022-07-23T00:25:23;21.40;71.40
2042;DHT22;1026;51.460;7.252;2022-07-23T00:27:49;21.40;71.50
2042;DHT22;1026;51.460;7.252;2022-07-23T00:30:14;21.30;71.40
2042;DHT22;1026;51.460;7.252;2022-07-23T00:32:56;21.30;71.50
2042;DHT22;1026;51.460;7.252;2022-07-23T00:35:24;21.30;71.60
2042;DHT22;1026;51.460;7.252;2022-07-23T00:37:50;21.30;71.70
2042;DHT22;1026;51.460;7.252;2022-07-23T00:40:16;21.30;71.70
2042;DHT22;1026;51.460;7.252;2022-07-23T00:42:42;21.30;71.70
2042;DHT22;1026;51.460;7.252;2022-07-23T00:45:08;21.30;71.80
2042;DHT22;1026;51.460;7.252;2022-07-23T00:47:34;21.30;71.80
2042;DHT22;1026;51.460;7.252;2022-07-23T00:50:00;21.20;71.70
2042;DHT22;1026;51.460;7.252;2022-07-23T00:52:26;21.20;71.80
2042;DHT22;1026;51.460;7.252;2022-07-23T00:54:52;21.20;72.60
2042;DHT22;1026;51.460;7.252;2022-07-23T00:57:18;21.20;72.00
2042;DHT22;1026;51.460;7.252;2022-07-23T00:59:44;21.20;72.00
2042;DHT22;1026;51.460;7.252;2022-07-23T01:02:10;21.20;72.20
2042;DHT22;1026;51.460;7.252;2022-07-23T01:04:35;21.20;72.20
2042;DHT22;1026;51.460;7.252;2022-07-23T01:07:01;21.10;72.00
2042;DHT22;1026;51.460;7.252;2022-07-23T01:09:27;21.10;72.10
2042;DHT22;1026;51.460;7.252;2022-07-23T01:11:55;21.10;72.10
2042;DHT22;1026;51.460;7.252;2022-07-23T01:14:21;21.10;72.20
2042;DHT22;1026;51.460;7.252;2022-07-23T01:16:48;21.00;72.10
2042;DHT22;1026;51.460;7.252;2022-07-23T01:19:15;21.10;72.30
2042;DHT22;1026;51.460;7.252;2022-07-23T01:21:44;21.10;72.50
2042;DHT22;1026;51.460;7.252;2022-07-23T01:24:10;21.00;72.30
2042;DHT22;1026;51.460;7.252;2022-07-23T01:26:37;21.00;72.40
2042;DHT22;1026;51.460;7.252;2022-07-23T01:29:04;21.00;72.50
2042;DHT22;1026;51.460;7.252;2022-07-23T01:31:30;21.00;72.50
2042;DHT22;1026;51.460;7.252;2022-07-23T01:33:56;21.00;72.50
2042;DHT22;1026;51.460;7.252;2022-07-23T01:36:22;21.00;72.60
2042;DHT22;1026;51.460;7.252;2022-07-23T01:38:49;21.00;72.60
2042;DHT22;1026;51.460;7.252;2022-07-23T01:41:15;21.00;72.70
2042;DHT22;1026;51.460;7.252;2022-07-23T01:43:41;21.00;72.90
2042;DHT22;1026;51.460;7.252;2022-07-23T01:46:07;20.90;72.70
2042;DHT22;1026;51.460;7.252;2022-07-23T01:48:32;21.00;72.80
2042;DHT22;1026;51.460;7.252;2022-07-23T01:50:58;20.90;72.70
2042;DHT22;1026;51.460;7.252;2022-07-23T01:53:24;20.90;72.70
2042;DHT22;1026;51.460;7.252;2022-07-23T01:55:49;20.90;72.80
2042;DHT22;1026;51.460;7.252;2022-07-23T01:58:15;20.90;72.80
2042;DHT22;1026;51.460;7.252;2022-07-23T02:00:41;20.90;73.60
2042;DHT22;1026;51.460;7.252;2022-07-23T02:03:06;20.90;72.90
2042;DHT22;1026;51.460;7.252;2022-07-23T02:05:32;20.90;73.00
2042;DHT22;1026;51.460;7.252;2022-07-23T02:07:59;20.90;72.90
2042;DHT22;1026;51.460;7.252;2022-07-23T02:10:25;20.90;73.00
2042;DHT22;1026;51.460;7.252;2022-07-23T02:12:50;20.80;73.00
2042;DHT22;1026;51.460;7.252;2022-07-23T02:15:16;20.80;73.10
2042;DHT22;1026;51.460;7.252;2022-07-23T02:17:42;20.80;73.00
2042;DHT22;1026;51.460;7.252;2022-07-23T02:20:10;20.80;73.20
2042;DHT22;1026;51.460;7.252;2022-07-23T02:22:37;20.80;73.10
2042;DHT22;1026;51.460;7.252;2022-07-23T02:25:05;20.80;73.10
2042;DHT22;1026;51.460;7.252;2022-07-23T02:27:31;20.80;73.20
2042;DHT22;1026;51.460;7.252;2022-07-23T02:29:56;20.80;73.20
2042;DHT22;1026;51.460;7.252;2022-07-23T02:32:23;20.80;73.30
2042;DHT22;1026;51.460;7.252;2022-07-23T02:34:50;20.70;73.20
2042;DHT22;1026;51.460;7.252;2022-07-23T02:37:16;20.70;73.20
2042;DHT22;1026;51.460;7.252;2022-07-23T02:39:42;20.70;73.30
2042;DHT22;1026;51.460;7.252;2022-07-23T02:42:08;20.60;73.10
2042;DHT22;1026;51.460;7.252;2022-07-23T02:44:34;20.70;73.30
2042;DHT22;1026;51.460;7.252;2022-07-23T02:47:00;20.70;73.40
2042;DHT22;1026;51.460;7.252;2022-07-23T02:49:25;20.70;73.40
2042;DHT22;1026;51.460;7.252;2022-07-23T02:51:51;20.60;73.30
2042;DHT22;1026;51.460;7.252;2022-07-23T02:54:16;20.60;73.30
2042;DHT22;1026;51.460;7.252;2022-07-23T02:56:42;20.60;73.30
2042;DHT22;1026;51.460;7.252;2022-07-23T02:59:08;20.60;73.40
2042;DHT22;1026;51.460;7.252;2022-07-23T03:01:34;20.60;73.40
2042;DHT22;1026;51.460;7.252;2022-07-23T03:04:00;20.50;73.30
2042;DHT22;1026;51.460;7.252;2022-07-23T03:06:25;20.60;73.40
2042;DHT22;1026;51.460;7.252;2022-07-23T03:08:51;20.60;73.50
2042;DHT22;1026;51.460;7.252;2022-07-23T03:11:17;20.60;73.50
2042;DHT22;1026;51.460;7.252;2022-07-23T03:13:42;20.60;73.50
2042;DHT22;1026;51.460;7.252;2022-07-23T03:16:08;20.50;73.50
2042;DHT22;1026;51.460;7.252;2022-07-23T03:18:34;20.60;73.60
2042;DHT22;1026;51.460;7.252;2022-07-23T03:21:00;20.50;73.60
2042;DHT22;1026;51.460;7.252;2022-07-23T03:23:26;20.50;73.60
2042;DHT22;1026;51.460;7.252;2022-07-23T03:25:52;20.50;73.60
2042;DHT22;1026;51.460;7.252;2022-07-23T03:28:18;20.50;73.60
2042;DHT22;1026;51.460;7.252;2022-07-23T03:30:45;20.50;73.60
2042;DHT22;1026;51.460;7.252;2022-07-23T03:33:14;20.50;73.60
2042;DHT22;1026;51.460;7.252;2022-07-23T03:35:40;20.50;73.60
2042;DHT22;1026;51.460;7.252;2022-07-23T03:38:06;20.50;73.70
2042;DHT22;1026;51.460;7.252;2022-07-23T03:40:31;20.50;73.70
2042;DHT22;1026;51.460;7.252;2022-07-23T03:42:57;20.40;73.60
2042;DHT22;1026;51.460;7.252;2022-07-23T03:45:23;20.40;73.70
2042;DHT22;1026;51.460;7.252;2022-07-23T03:47:48;20.40;73.70
2042;DHT22;1026;51.460;7.252;2022-07-23T03:50:14;20.40;73.70
2042;DHT22;1026;51.460;7.252;2022-07-23T03:52:39;20.50;73.80
2042;DHT22;1026;51.460;7.252;2022-07-23T03:55:06;20.40;73.70
2042;DHT22;1026;51.460;7.252;2022-07-23T03:57:32;20.40;73.70
2042;DHT22;1026;51.460;7.252;2022-07-23T03:59:57;20.40;73.80
2042;DHT22;1026;51.460;7.252;2022-07-23T04:02:23;20.40;73.90
2042;DHT22;1026;51.460;7.252;2022-07-23T04:04:49;20.40;73.90
2042;DHT22;1026;51.460;7.252;2022-07-23T04:07:15;20.30;73.90
2042;DHT22;1026;51.460;7.252;2022-07-23T04:09:42;20.30;73.80
2042;DHT22;1026;51.460;7.252;2022-07-23T04:12:08;20.30;73.90
2042;DHT22;1026;51.460;7.252;2022-07-23T04:14:34;20.30;73.90
2042;DHT22;1026;51.460;7.252;2022-07-23T04:17:00;20.30;73.90
2042;DHT22;1026;51.460;7.252;2022-07-23T04:19:26;20.30;74.00
2042;DHT22;1026;51.460;7.252;2022-07-23T04:21:52;20.30;73.90
2042;DHT22;1026;51.460;7.252;2022-07-23T04:24:18;20.30;74.00
2042;DHT22;1026;51.460;7.252;2022-07-23T04:26:44;20.20;74.00
2042;DHT22;1026;51.460;7.252;2022-07-23T04:29:10;20.20;74.00
2042;DHT22;1026;51.460;7.252;2022-07-23T04:31:36;20.20;74.10
2042;DHT22;1026;51.460;7.252;2022-07-23T04:34:01;20.10;73.90
2042;DHT22;1026;51.460;7.252;2022-07-23T04:36:27;20.20;74.10
2042;DHT22;1026;51.460;7.252;2022-07-23T04:38:53;20.20;74.10
2042;DHT22;1026;51.460;7.252;2022-07-23T04:41:19;20.20;74.20
2042;DHT22;1026;51.460;7.252;2022-07-23T04:43:46;20.20;74.20
2042;DHT22;1026;51.460;7.252;2022-07-23T04:46:11;20.10;74.10
2042;DHT22;1026;51.460;7.252;2022-07-23T04:48:37;20.10;74.10
2042;DHT22;1026;51.460;7.252;2022-07-23T04:51:03;20.10;74.10
2042;DHT22;1026;51.460;7.252;2022-07-23T04:53:29;20.10;74.10
2042;DHT22;1026;51.460;7.252;2022-07-23T04:55:55;20.10;74.20
2042;DHT22;1026;51.460;7.252;2022-07-23T04:58:20;20.10;74.30
2042;DHT22;1026;51.460;7.252;2022-07-23T05:00:46;20.10;74.30
2042;DHT22;1026;51.460;7.252;2022-07-23T05:03:12;20.10;74.30
2042;DHT22;1026;51.460;7.252;2022-07-23T05:05:38;20.00;74.20
2042;DHT22;1026;51.460;7.252;2022-07-23T05:08:04;20.00;74.40
2042;DHT22;1026;51.460;7.252;2022-07-23T05:10:29;20.00;74.50
2042;DHT22;1026;51.460;7.252;2022-07-23T05:12:55;20.00;74.40
2042;DHT22;1026;51.460;7.252;2022-07-23T05:15:21;20.00;74.40
2042;DHT22;1026;51.460;7.252;2022-07-23T05:17:47;20.00;74.50
2042;DHT22;1026;51.460;7.252;2022-07-23T05:20:12;20.00;74.50
2042;DHT22;1026;51.460;7.252;2022-07-23T05:22:39;19.90;74.40
2042;DHT22;1026;51.460;7.252;2022-07-23T05:25:05;20.00;74.60
2042;DHT22;1026;51.460;7.252;2022-07-23T05:27:31;20.00;74.60
2042;DHT22;1026;51.460;7.252;2022-07-23T05:29:57;20.00;74.60
2042;DHT22;1026;51.460;7.252;2022-07-23T05:32:23;20.00;74.70
2042;DHT22;1026;51.460;7.252;2022-07-23T05:34:49;19.90;74.60
2042;DHT22;1026;51.460;7.252;2022-07-23T05:37:15;19.90;74.60
2042;DHT22;1026;51.460;7.252;2022-07-23T05:39:41;19.90;74.70
2042;DHT22;1026;51.460;7.252;2022-07-23T05:42:06;19.90;74.70
2042;DHT22;1026;51.460;7.252;2022-07-23T05:44:33;19.90;74.70
2042;DHT22;1026;51.460;7.252;2022-07-23T05:46:58;19.90;75.50
2042;DHT22;1026;51.460;7.252;2022-07-23T05:49:24;19.90;74.80
2042;DHT22;1026;51.460;7.252;2022-07-23T05:51:50;19.90;74.80
2042;DHT22;1026;51.460;7.252;2022-07-23T05:54:16;19.90;74.70
2042;DHT22;1026;51.460;7.252;2022-07-23T05:56:41;19.90;74.80
2042;DHT22;1026;51.460;7.252;2022-07-23T05:59:07;19.90;74.70
2042;DHT22;1026;51.460;7.252;2022-07-23T06:01:33;19.80;74.70
2042;DHT22;1026;51.460;7.252;2022-07-23T06:03:59;19.90;74.80
2042;DHT22;1026;51.460;7.252;2022-07-23T06:06:25;19.90;74.90
2042;DHT22;1026;51.460;7.252;2022-07-23T06:08:50;19.90;74.80
2042;DHT22;1026;51.460;7.252;2022-07-23T06:11:16;19.90;74.90
2042;DHT22;1026;51.460;7.252;2022-07-23T06:13:41;19.80;74.80
2042;DHT22;1026;51.460;7.252;2022-07-23T06:16:07;19.80;74.90
2042;DHT22;1026;51.460;7.252;2022-07-23T06:18:33;19.80;74.90
2042;DHT22;1026;51.460;7.252;2022-07-23T06:20:59;19.80;75.70
2042;DHT22;1026;51.460;7.252;2022-07-23T06:23:24;19.70;74.90
2042;DHT22;1026;51.460;7.252;2022-07-23T06:25:50;19.80;74.90
2042;DHT22;1026;51.460;7.252;2022-07-23T06:28:15;19.80;75.00
2042;DHT22;1026;51.460;7.252;2022-07-23T06:30:41;19.80;74.90
2042;DHT22;1026;51.460;7.252;2022-07-23T06:33:07;19.80;75.10
2042;DHT22;1026;51.460;7.252;2022-07-23T06:35:33;19.80;75.20
2042;DHT22;1026;51.460;7.252;2022-07-23T06:37:59;19.80;75.30
2042;DHT22;1026;51.460;7.252;2022-07-23T06:40:25;19.80;75.10
2042;DHT22;1026;51.460;7.252;2022-07-23T06:42:51;19.80;76.00
2042;DHT22;1026;51.460;7.252;2022-07-23T06:45:16;19.80;75.10
2042;DHT22;1026;51.460;7.252;2022-07-23T06:47:42;19.80;75.20
2042;DHT22;1026;51.460;7.252;2022-07-23T06:50:08;19.80;75.20
2042;DHT22;1026;51.460;7.252;2022-07-23T06:52:34;19.80;75.30
2042;DHT22;1026;51.460;7.252;2022-07-23T06:55:00;19.80;75.30
2042;DHT22;1026;51.460;7.252;2022-07-23T06:57:26;19.80;75.50
2042;DHT22;1026;51.460;7.252;2022-07-23T06:59:52;19.80;75.30
2042;DHT22;1026;51.460;7.252;2022-07-23T07:02:18;19.80;75.30
2042;DHT22;1026;51.460;7.252;2022-07-23T07:04:44;19.80;75.20
2042;DHT22;1026;51.460;7.252;2022-07-23T07:07:10;19.80;75.20
2042;DHT22;1026;51.460;7.252;2022-07-23T07:09:35;19.80;75.60
2042;DHT22;1026;51.460;7.252;2022-07-23T07:12:01;19.80;75.20
2042;DHT22;1026;51.460;7.252;2022-07-23T07:14:27;19.80;75.30
2042;DHT22;1026;51.460;7.252;2022-07-23T07:16:52;19.80;75.20
2042;DHT22;1026;51.460;7.252;2022-07-23T07:19:18;19.80;75.30
2042;DHT22;1026;51.460;7.252;2022-07-23T07:21:44;19.80;75.30
2042;DHT22;1026;51.460;7.252;2022-07-23T07:24:09;19.80;75.30
2042;DHT22;1026;51.460;7.252;2022-07-23T07:26:35;19.70;75.10
2042;DHT22;1026;51.460;7.252;2022-07-23T07:29:01;19.80;75.30
2042;DHT22;1026;51.460;7.252;2022-07-23T07:31:26;19.80;75.20
2042;DHT22;1026;51.460;7.252;2022-07-23T07:33:52;19.80;75.20
2042;DHT22;1026;51.460;7.252;2022-07-23T07:36:18;19.80;75.20
2042;DHT22;1026;51.460;7.252;2022-07-23T07:38:43;19.80;75.20
2042;DHT22;1026;51.460;7.252;2022-07-23T07:41:09;19.80;75.20
2042;DHT22;1026;51.460;7.252;2022-07-23T07:43:36;19.80;75.30
2042;DHT22;1026;51.460;7.252;2022-07-23T07:46:03;19.80;75.30
2042;DHT22;1026;51.460;7.252;2022-07-23T07:48:28;19.80;75.20
2042;DHT22;1026;51.460;7.252;2022-07-23T07:50:54;19.80;75.20
2042;DHT22;1026;51.460;7.252;2022-07-23T07:53:20;19.80;75.20
2042;DHT22;1026;51.460;7.252;2022-07-23T07:55:46;19.80;75.10
2042;DHT22;1026;51.460;7.252;2022-07-23T07:58:11;19.80;75.10
2042;DHT22;1026;51.460;7.252;2022-07-23T08:00:37;19.90;75.20
2042;DHT22;1026;51.460;7.252;2022-07-23T08:03:03;19.80;75.00
2042;DHT22;1026;51.460;7.252;2022-07-23T08:05:30;19.90;75.00
2042;DHT22;1026;51.460;7.252;2022-07-23T08:07:56;19.90;75.40
2042;DHT22;1026;51.460;7.252;2022-07-23T08:10:23;19.90;75.20
2042;DHT22;1026;51.460;7.252;2022-07-23T08:12:51;19.90;75.10
2042;DHT22;1026;51.460;7.252;2022-07-23T08:15:19;19.90;75.00
2042;DHT22;1026;51.460;7.252;2022-07-23T08:17:46;19.90;75.00
2042;DHT22;1026;51.460;7.252;2022-07-23T08:20:14;19.90;75.10
2042;DHT22;1026;51.460;7.252;2022-07-23T08:22:44;19.90;75.00
2042;DHT22;1026;51.460;7.252;2022-07-23T08:25:10;19.90;75.00
2042;DHT22;1026;51.460;7.252;2022-07-23T08:27:36;19.90;75.00
2042;DHT22;1026;51.460;7.252;2022-07-23T08:30:03;19.90;74.90
2042;DHT22;1026;51.460;7.252;2022-07-23T08:32:28;19.90;75.70
2042;DHT22;1026;51.460;7.252;2022-07-23T08:34:54;19.90;74.90
2042;DHT22;1026;51.460;7.252;2022-07-23T08:37:20;19.90;74.90
2042;DHT22;1026;51.460;7.252;2022-07-23T08:39:46;19.90;74.90
2042;DHT22;1026;51.460;7.252;2022-07-23T08:42:14;19.90;74.80
2042;DHT22;1026;51.460;7.252;2022-07-23T08:44:42;20.00;74.90
2042;DHT22;1026;51.460;7.252;2022-07-23T08:47:11;20.00;74.90
2042;DHT22;1026;51.460;7.252;2022-07-23T08:49:37;20.00;74.90
2042;DHT22;1026;51.460;7.252;2022-07-23T08:52:04;20.00;74.90
2042;DHT22;1026;51.460;7.252;2022-07-23T08:54:31;19.90;74.70
2042;DHT22;1026;51.460;7.252;2022-07-23T08:56:57;20.00;74.70
2042;DHT22;1026;51.460;7.252;2022-07-23T08:59:23;20.00;74.70
2042;DHT22;1026;51.460;7.252;2022-07-23T09:01:48;20.00;74.80
2042;DHT22;1026;51.460;7.252;2022-07-23T09:04:14;19.90;74.70
2042;DHT22;1026;51.460;7.252;2022-07-23T09:06:40;20.00;74.60
2042;DHT22;1026;51.460;7.252;2022-07-23T09:09:21;20.00;74.60
2042;DHT22;1026;51.460;7.252;2022-07-23T09:11:48;20.00;74.60
2042;DHT22;1026;51.460;7.252;2022-07-23T09:14:44;20.00;74.60
2042;DHT22;1026;51.460;7.252;2022-07-23T09:17:16;20.00;74.60
2042;DHT22;1026;51.460;7.252;2022-07-23T09:19:43;20.00;74.80
2042;DHT22;1026;51.460;7.252;2022-07-23T09:27:47;20.00;74.50
2042;DHT22;1026;51.460;7.252;2022-07-23T09:30:13;20.00;74.50
2042;DHT22;1026;51.460;7.252;2022-07-23T09:32:40;20.00;74.50
2042;DHT22;1026;51.460;7.252;2022-07-23T09:35:06;20.00;74.60
2042;DHT22;1026;51.460;7.252;2022-07-23T09:37:32;20.10;74.60
2042;DHT22;1026;51.460;7.252;2022-07-23T09:40:08;20.10;73.80
2042;DHT22;1026;51.460;7.252;2022-07-23T09:42:35;20.10;74.40
2042;DHT22;1026;51.460;7.252;2022-07-23T09:45:00;20.10;74.60
2042;DHT22;1026;51.460;7.252;2022-07-23T09:47:30;20.10;74.60
2042;DHT22;1026;51.460;7.252;2022-07-23T09:50:11;20.10;74.90
2042;DHT22;1026;51.460;7.252;2022-07-23T09:52:48;20.10;74.70
2042;DHT22;1026;51.460;7.252;2022-07-23T09:55:14;20.10;75.00
2042;DHT22;1026;51.460;7.252;2022-07-23T09:57:41;20.10;74.90
2042;DHT22;1026;51.460;7.252;2022-07-23T10:00:08;20.10;74.80
2042;DHT22;1026;51.460;7.252;2022-07-23T10:02:36;20.10;75.00
2042;DHT22;1026;51.460;7.252;2022-07-23T10:05:03;20.20;75.20
2042;DHT22;1026;51.460;7.252;2022-07-23T10:07:32;20.20;75.10
2042;DHT22;1026;51.460;7.252;2022-07-23T10:10:00;20.20;75.20
2042;DHT22;1026;51.460;7.252;2022-07-23T10:12:26;20.20;75.20
2042;DHT22;1026;51.460;7.252;2022-07-23T10:15:05;20.20;75.10
2042;DHT22;1026;51.460;7.252;2022-07-23T10:17:32;20.20;75.10
2042;DHT22;1026;51.460;7.252;2022-07-23T10:19:58;20.20;74.90
2042;DHT22;1026;51.460;7.252;2022-07-23T10:22:35;20.20;75.00
2042;DHT22;1026;51.460;7.252;2022-07-23T10:27:48;20.30;75.00
2042;DHT22;1026;51.460;7.252;2022-07-23T10:30:36;20.30;74.80
2042;DHT22;1026;51.460;7.252;2022-07-23T10:33:26;20.30;74.90
2042;DHT22;1026;51.460;7.252;2022-07-23T10:36:08;20.30;75.10
2042;DHT22;1026;51.460;7.252;2022-07-23T10:38:45;20.30;74.90
2042;DHT22;1026;51.460;7.252;2022-07-23T10:41:13;20.40;75.00
2042;DHT22;1026;51.460;7.252;2022-07-23T10:43:39;20.40;74.50
2042;DHT22;1026;51.460;7.252;2022-07-23T10:46:22;20.40;74.90
2042;DHT22;1026;51.460;7.252;2022-07-23T10:49:24;20.40;75.00
2042;DHT22;1026;51.460;7.252;2022-07-23T10:52:18;20.50;74.90
2042;DHT22;1026;51.460;7.252;2022-07-23T10:57:12;20.50;74.80
2042;DHT22;1026;51.460;7.252;2022-07-23T11:00:11;20.50;74.90
2042;DHT22;1026;51.460;7.252;2022-07-23T11:02:39;20.50;74.20
2042;DHT22;1026;51.460;7.252;2022-07-23T11:05:08;20.50;74.30
2042;DHT22;1026;51.460;7.252;2022-07-23T11:07:36;20.60;74.40
2042;DHT22;1026;51.460;7.252;2022-07-23T11:10:03;20.50;74.60
2042;DHT22;1026;51.460;7.252;2022-07-23T11:15:10;20.60;74.40
2042;DHT22;1026;51.460;7.252;2022-07-23T11:17:39;20.60;74.20
2042;DHT22;1026;51.460;7.252;2022-07-23T11:20:15;20.70;73.30
2042;DHT22;1026;51.460;7.252;2022-07-23T11:25:08;20.60;73.70
2042;DHT22;1026;51.460;7.252;2022-07-23T11:27:43;20.70;73.90
2042;DHT22;1026;51.460;7.252;2022-07-23T11:30:12;20.60;73.20
2042;DHT22;1026;51.460;7.252;2022-07-23T11:35:38;20.80;73.80
2042;DHT22;1026;51.460;7.252;2022-07-23T11:38:20;20.80;74.00
2042;DHT22;1026;51.460;7.252;2022-07-23T11:40:48;20.90;74.20
2042;DHT22;1026;51.460;7.252;2022-07-23T11:43:15;20.80;72.90
2042;DHT22;1026;51.460;7.252;2022-07-23T11:45:44;20.80;73.90
2042;DHT22;1026;51.460;7.252;2022-07-23T11:48:17;20.90;73.80
2042;DHT22;1026;51.460;7.252;2022-07-23T11:50:43;21.00;73.70
2042;DHT22;1026;51.460;7.252;2022-07-23T11:53:09;21.00;73.60
2042;DHT22;1026;51.460;7.252;2022-07-23T11:55:35;21.00;72.10
2042;DHT22;1026;51.460;7.252;2022-07-23T11:58:00;21.00;73.30
2042;DHT22;1026;51.460;7.252;2022-07-23T12:00:28;21.00;73.30
2042;DHT22;1026;51.460;7.252;2022-07-23T12:02:57;21.10;73.00
2042;DHT22;1026;51.460;7.252;2022-07-23T12:05:29;21.10;73.40
2042;DHT22;1026;51.460;7.252;2022-07-23T12:07:56;21.10;73.00
2042;DHT22;1026;51.460;7.252;2022-07-23T12:10:29;21.20;73.30
2042;DHT22;1026;51.460;7.252;2022-07-23T12:12:57;21.20;73.20
2042;DHT22;1026;51.460;7.252;2022-07-23T12:15:26;21.20;73.30
2042;DHT22;1026;51.460;7.252;2022-07-23T12:17:52;21.30;73.00
2042;DHT22;1026;51.460;7.252;2022-07-23T12:20:26;21.30;73.10
2042;DHT22;1026;51.460;7.252;2022-07-23T12:22:55;21.30;72.90
2042;DHT22;1026;51.460;7.252;2022-07-23T12:25:24;21.40;72.20
2042;DHT22;1026;51.460;7.252;2022-07-23T12:30:34;21.40;72.40
2042;DHT22;1026;51.460;7.252;2022-07-23T12:33:03;21.50;72.60
2042;DHT22;1026;51.460;7.252;2022-07-23T12:35:33;21.50;72.40
2042;DHT22;1026;51.460;7.252;2022-07-23T12:38:02;21.50;72.50
2042;DHT22;1026;51.460;7.252;2022-07-23T12:40:34;21.60;71.80
2042;DHT22;1026;51.460;7.252;2022-07-23T12:43:06;21.60;71.80
2042;DHT22;1026;51.460;7.252;2022-07-23T12:45:48;21.70;71.20
2042;DHT22;1026;51.460;7.252;2022-07-23T12:56:08;21.80;72.20
2042;DHT22;1026;51.460;7.252;2022-07-23T13:01:08;21.90;71.20
2042;DHT22;1026;51.460;7.252;2022-07-23T13:03:39;22.00;70.90
2042;DHT22;1026;51.460;7.252;2022-07-23T13:06:08;22.00;70.70
2042;DHT22;1026;51.460;7.252;2022-07-23T13:08:35;22.10;70.70
2042;DHT22;1026;51.460;7.252;2022-07-23T13:11:02;22.10;70.40
2042;DHT22;1026;51.460;7.252;2022-07-23T13:13:29;22.20;70.10
2042;DHT22;1026;51.460;7.252;2022-07-23T13:15:57;22.20;69.50
2042;DHT22;1026;51.460;7.252;2022-07-23T13:18:24;22.30;70.30
2042;DHT22;1026;51.460;7.252;2022-07-23T13:20:50;22.30;68.70
2042;DHT22;1026;51.460;7.252;2022-07-23T13:23:17;22.40;70.10
2042;DHT22;1026;51.460;7.252;2022-07-23T13:25:43;22.50;71.10
2042;DHT22;1026;51.460;7.252;2022-07-23T13:28:09;22.50;71.20
2042;DHT22;1026;51.460;7.252;2022-07-23T13:30:35;22.60;71.00
2042;DHT22;1026;51.460;7.252;2022-07-23T13:33:03;22.60;70.50
2042;DHT22;1026;51.460;7.252;2022-07-23T13:35:29;22.70;68.90
2042;DHT22;1026;51.460;7.252;2022-07-23T13:37:55;22.70;67.40
2042;DHT22;1026;51.460;7.252;2022-07-23T13:40:21;22.80;68.80
2042;DHT22;1026;51.460;7.252;2022-07-23T13:42:47;22.90;68.60
2042;DHT22;1026;51.460;7.252;2022-07-23T13:45:13;23.00;70.40
2042;DHT22;1026;51.460;7.252;2022-07-23T13:47:39;23.00;68.10
2042;DHT22;1026;51.460;7.252;2022-07-23T13:50:05;23.00;68.30
2042;DHT22;1026;51.460;7.252;2022-07-23T13:52:31;23.20;68.20
2042;DHT22;1026;51.460;7.252;2022-07-23T13:55:00;23.20;67.90
2042;DHT22;1026;51.460;7.252;2022-07-23T13:57:26;23.30;69.30
2042;DHT22;1026;51.460;7.252;2022-07-23T13:59:52;23.40;69.30
2042;DHT22;1026;51.460;7.252;2022-07-23T14:02:17;23.40;69.20
2042;DHT22;1026;51.460;7.252;2022-07-23T14:04:43;23.40;67.80
2042;DHT22;1026;51.460;7.252;2022-07-23T14:07:09;23.60;68.40
2042;DHT22;1026;51.460;7.252;2022-07-23T14:09:35;23.60;67.50
2042;DHT22;1026;51.460;7.252;2022-07-23T14:12:01;23.70;64.90
2042;DHT22;1026;51.460;7.252;2022-07-23T14:14:27;23.80;67.70
2042;DHT22;1026;51.460;7.252;2022-07-23T14:16:52;23.90;65.10
2042;DHT22;1026;51.460;7.252;2022-07-23T14:19:18;24.00;63.80
2042;DHT22;1026;51.460;7.252;2022-07-23T14:21:44;24.00;64.80
2042;DHT22;1026;51.460;7.252;2022-07-23T14:24:09;24.10;64.90
2042;DHT22;1026;51.460;7.252;2022-07-23T14:26:35;24.20;65.60
2042;DHT22;1026;51.460;7.252;2022-07-23T14:29:01;24.20;64.30
2042;DHT22;1026;51.460;7.252;2022-07-23T14:31:27;24.30;65.80
2042;DHT22;1026;51.460;7.252;2022-07-23T14:33:52;24.40;64.60
2042;DHT22;1026;51.460;7.252;2022-07-23T14:36:18;24.40;65.50
2042;DHT22;1026;51.460;7.252;2022-07-23T14:38:44;24.50;66.00
2042;DHT22;1026;51.460;7.252;2022-07-23T14:41:09;24.50;65.00
2042;DHT22;1026;51.460;7.252;2022-07-23T14:43:36;24.60;65.40
2042;DHT22;1026;51.460;7.252;2022-07-23T14:46:02;24.70;64.70
2042;DHT22;1026;51.460;7.252;2022-07-23T14:48:28;24.70;63.10
2042;DHT22;1026;51.460;7.252;2022-07-23T14:50:53;24.80;62.20
2042;DHT22;1026;51.460;7.252;2022-07-23T14:53:19;24.90;63.10
2042;DHT22;1026;51.460;7.252;2022-07-23T14:55:45;24.90;62.80
2042;DHT22;1026;51.460;7.252;2022-07-23T14:58:10;25.00;60.70
2042;DHT22;1026;51.460;7.252;2022-07-23T15:00:36;25.00;63.50
2042;DHT22;1026;51.460;7.252;2022-07-23T15:03:02;25.10;64.00
2042;DHT22;1026;51.460;7.252;2022-07-23T15:05:28;25.10;63.40
2042;DHT22;1026;51.460;7.252;2022-07-23T15:07:54;25.20;63.80
2042;DHT22;1026;51.460;7.252;2022-07-23T15:10:20;25.20;64.00
2042;DHT22;1026;51.460;7.252;2022-07-23T15:12:46;25.20;64.20
2042;DHT22;1026;51.460;7.252;2022-07-23T15:15:12;25.30;64.10
2042;DHT22;1026;51.460;7.252;2022-07-23T15:17:38;25.30;63.70
2042;DHT22;1026;51.460;7.252;2022-07-23T15:20:05;25.30;63.60
2042;DHT22;1026;51.460;7.252;2022-07-23T15:22:31;25.40;63.70
2042;DHT22;1026;51.460;7.252;2022-07-23T15:24:56;25.40;63.50
2042;DHT22;1026;51.460;7.252;2022-07-23T15:27:22;25.40;62.70
2042;DHT22;1026;51.460;7.252;2022-07-23T15:29:47;25.40;62.50
2042;DHT22;1026;51.460;7.252;2022-07-23T15:32:13;25.50;63.20
2042;DHT22;1026;51.460;7.252;2022-07-23T15:34:39;25.50;63.10
2042;DHT22;1026;51.460;7.252;2022-07-23T15:37:05;25.50;62.90
2042;DHT22;1026;51.460;7.252;2022-07-23T15:39:32;25.50;63.20
2042;DHT22;1026;51.460;7.252;2022-07-23T15:42:00;25.60;63.10
2042;DHT22;1026;51.460;7.252;2022-07-23T15:44:26;25.60;63.00
2042;DHT22;1026;51.460;7.252;2022-07-23T15:46:52;25.70;62.00
2042;DHT22;1026;51.460;7.252;2022-07-23T15:49:18;25.70;63.00
2042;DHT22;1026;51.460;7.252;2022-07-23T15:51:44;25.70;62.10
2042;DHT22;1026;51.460;7.252;2022-07-23T15:54:09;25.70;62.10
2042;DHT22;1026;51.460;7.252;2022-07-23T15:56:35;25.70;62.00
2042;DHT22;1026;51.460;7.252;2022-07-23T15:59:01;25.70;62.30
2042;DHT22;1026;51.460;7.252;2022-07-23T16:01:27;25.70;62.70
2042;DHT22;1026;51.460;7.252;2022-07-23T16:03:56;25.60;62.80
2042;DHT22;1026;51.460;7.252;2022-07-23T16:06:25;25.70;62.00
2042;DHT22;1026;51.460;7.252;2022-07-23T16:08:51;25.80;62.20
2042;DHT22;1026;51.460;7.252;2022-07-23T16:11:17;25.80;60.70
2042;DHT22;1026;51.460;7.252;2022-07-23T16:13:43;25.80;62.40
2042;DHT22;1026;51.460;7.252;2022-07-23T16:16:09;25.60;61.50
2042;DHT22;1026;51.460;7.252;2022-07-23T16:18:35;25.70;59.80
2042;DHT22;1026;51.460;7.252;2022-07-23T16:21:01;25.80;61.90
2042;DHT22;1026;51.460;7.252;2022-07-23T16:23:27;25.80;62.30
2042;DHT22;1026;51.460;7.252;2022-07-23T16:25:52;25.80;61.80
2042;DHT22;1026;51.460;7.252;2022-07-23T16:28:18;25.80;61.90
2042;DHT22;1026;51.460;7.252;2022-07-23T16:30:44;25.80;62.00
2042;DHT22;1026;51.460;7.252;2022-07-23T16:33:09;25.80;62.20